createdAt,value
2022-08-12T00:00:05.427Z,121.00
2022-08-12T00:01:05.490Z,118.80
2022-08-12T00:02:05.896Z,113.90
2022-08-12T00:03:05.423Z,121.70
2022-08-12T00:04:05.357Z,116.10
2022-08-12T00:05:05.352Z,122.40
2022-08-12T00:06:05.348Z,136.70
2022-08-12T00:07:05.326Z,136.00
2022-08-12T00:08:05.299Z,105.90
2022-08-12T00:09:05.370Z,108.20
2022-08-12T00:10:05.306Z,97.50
2022-08-12T00:11:09.705Z,107.40
2022-08-12T00:12:06.278Z,120.20
2022-08-12T00:13:05.240Z,109.10
2022-08-12T00:14:05.220Z,108.20
2022-08-12T00:15:05.222Z,118.40
2022-08-12T00:16:05.214Z,133.90
2022-08-12T00:17:05.193Z,135.80
2022-08-12T00:18:05.172Z,131.60
2022-08-12T00:19:05.172Z,136.80
2022-08-12T00:20:05.227Z,141.70
2022-08-12T00:21:05.139Z,155.40
2022-08-12T00:22:05.121Z,149.30
2022-08-12T00:23:05.118Z,145.30
2022-08-12T00:24:05.108Z,139.10
2022-08-12T00:25:05.093Z,132.70
2022-08-12T00:26:22.731Z,129.30
2022-08-12T00:27:06.062Z,137.40
2022-08-12T00:28:05.057Z,129.80
2022-08-12T00:29:05.036Z,116.20
2022-08-12T00:30:05.023Z,121.10
2022-08-12T00:31:05.119Z,135.90
2022-08-12T00:32:05.004Z,134.70
2022-08-12T00:33:04.991Z,132.70
2022-08-12T00:34:05.333Z,142.40
2022-08-12T00:35:08.783Z,145.30
2022-08-12T00:36:04.950Z,149.40
2022-08-12T00:37:13.329Z,147.50
2022-08-12T00:38:05.915Z,145.50
2022-08-12T00:39:04.914Z,128.30
2022-08-12T00:40:11.637Z,138.00
2022-08-12T00:41:06.075Z,122.80
2022-08-12T00:42:04.869Z,102.30
2022-08-12T00:43:04.855Z,102.90
2022-08-12T00:44:04.834Z,138.80
2022-08-12T00:45:04.825Z,133.70
2022-08-12T00:46:04.816Z,123.00
2022-08-12T00:47:04.795Z,124.90
2022-08-12T00:48:04.788Z,131.70
2022-08-12T00:49:04.785Z,143.50
2022-08-12T00:50:04.763Z,130.10
2022-08-12T00:51:04.755Z,133.80
2022-08-12T00:52:04.847Z,138.70
2022-08-12T00:53:04.731Z,119.50
2022-08-12T00:54:04.708Z,103.60
2022-08-12T00:55:04.700Z,102.30
2022-08-12T00:56:04.697Z,110.00
2022-08-12T00:57:04.675Z,113.20
2022-08-12T00:58:04.667Z,117.90
2022-08-12T00:59:04.659Z,132.80
2022-08-12T01:00:04.635Z,139.90
2022-08-12T01:01:04.664Z,124.70
2022-08-12T01:02:11.283Z,119.80
2022-08-12T01:03:05.699Z,122.50
2022-08-12T01:04:04.577Z,134.70
2022-08-12T01:05:04.568Z,135.60
2022-08-12T01:06:04.560Z,117.00
2022-08-12T01:07:04.547Z,121.00
2022-08-12T01:08:04.540Z,116.60
2022-08-12T01:09:04.519Z,119.00
2022-08-12T01:10:04.498Z,119.90
2022-08-12T01:11:04.504Z,125.60
2022-08-12T01:12:04.497Z,139.10
2022-08-12T01:13:07.335Z,148.30
2022-08-12T01:14:05.608Z,144.00
2022-08-12T01:15:04.456Z,142.30
2022-08-12T01:16:04.441Z,144.30
2022-08-12T01:17:04.418Z,141.70
2022-08-12T01:18:04.398Z,137.10
2022-08-12T01:19:04.400Z,135.50
2022-08-12T01:20:04.378Z,141.20
2022-08-12T01:21:04.372Z,150.20
2022-08-12T01:22:04.347Z,155.90
2022-08-12T01:23:04.342Z,143.60
2022-08-12T01:24:29.567Z,128.90
2022-08-12T01:25:05.329Z,129.50
2022-08-12T01:26:04.299Z,127.70
2022-08-12T01:27:07.967Z,145.90
2022-08-12T01:28:04.270Z,149.50
2022-08-12T01:29:04.259Z,152.60
2022-08-12T01:30:04.249Z,155.20
2022-08-12T01:31:04.230Z,146.20
2022-08-12T01:32:04.221Z,145.10
2022-08-12T01:33:04.210Z,137.30
2022-08-12T01:34:04.204Z,133.50
2022-08-12T01:35:04.191Z,132.10
2022-08-12T01:36:08.241Z,143.90
2022-08-12T01:37:04.162Z,151.80
2022-08-12T01:38:04.141Z,159.80
2022-08-12T01:39:04.130Z,164.60
2022-08-12T01:40:31.678Z,159.40
2022-08-12T01:41:05.175Z,152.80
2022-08-12T01:42:04.091Z,154.40
2022-08-12T01:43:04.081Z,153.60
2022-08-12T01:44:04.080Z,149.70
2022-08-12T01:45:04.068Z,151.60
2022-08-12T01:46:04.043Z,160.00
2022-08-12T01:47:04.124Z,160.70
2022-08-12T01:48:05.081Z,160.00
2022-08-12T01:49:04.002Z,162.50
2022-08-12T01:50:03.983Z,138.70
2022-08-12T01:51:06.060Z,155.00
2022-08-12T01:52:21.773Z,158.40
2022-08-12T01:53:04.952Z,157.90
2022-08-12T01:54:03.933Z,171.40
2022-08-12T01:55:03.936Z,169.90
2022-08-12T01:56:03.915Z,175.60
2022-08-12T01:57:03.893Z,196.40
2022-08-12T01:58:04.043Z,188.40
2022-08-12T01:59:03.875Z,200.00
2022-08-12T02:00:03.855Z,199.00
2022-08-12T02:01:03.983Z,197.40
2022-08-12T02:02:03.836Z,183.60
2022-08-12T02:03:03.823Z,184.70
2022-08-12T02:04:03.803Z,183.80
2022-08-12T02:05:03.795Z,183.20
2022-08-12T02:06:03.784Z,175.10
2022-08-12T02:07:03.776Z,186.50
2022-08-12T02:08:03.747Z,182.70
2022-08-12T02:09:03.814Z,198.50
2022-08-12T02:10:03.727Z,205.80
2022-08-12T02:11:03.726Z,194.60
2022-08-12T02:12:06.135Z,204.90
2022-08-12T02:13:03.696Z,193.00
2022-08-12T02:14:03.684Z,206.80
2022-08-12T02:15:03.667Z,201.20
2022-08-12T02:16:03.656Z,202.00
2022-08-12T02:17:03.635Z,206.50
2022-08-12T02:18:03.627Z,206.40
2022-08-12T02:19:03.614Z,212.70
2022-08-12T02:20:04.698Z,207.90
2022-08-12T02:21:03.596Z,205.70
2022-08-12T02:22:04.751Z,194.10
2022-08-12T02:23:03.555Z,203.40
2022-08-12T02:24:03.543Z,205.40
2022-08-12T02:25:03.555Z,203.30
2022-08-12T02:26:03.526Z,212.10
2022-08-12T02:27:03.506Z,209.60
2022-08-12T02:28:05.997Z,200.40
2022-08-12T02:29:03.486Z,208.60
2022-08-12T02:30:03.480Z,217.20
2022-08-12T02:31:03.519Z,201.50
2022-08-12T02:32:03.437Z,192.40
2022-08-12T02:33:03.428Z,188.60
2022-08-12T02:34:03.420Z,190.30
2022-08-12T02:35:03.404Z,198.10
2022-08-12T02:36:03.400Z,196.70
2022-08-12T02:37:03.773Z,202.30
2022-08-12T02:38:03.360Z,205.60
2022-08-12T02:39:03.353Z,191.70
2022-08-12T02:40:03.338Z,195.00
2022-08-12T02:41:03.318Z,195.80
2022-08-12T02:42:03.438Z,182.10
2022-08-12T02:43:03.306Z,190.30
2022-08-12T02:44:03.278Z,187.60
2022-08-12T02:45:03.271Z,183.80
2022-08-12T02:46:03.260Z,187.10
2022-08-12T02:47:03.250Z,189.80
2022-08-12T02:48:03.229Z,190.30
2022-08-12T02:49:03.244Z,177.20
2022-08-12T02:50:03.209Z,169.80
2022-08-12T02:51:03.199Z,173.40
2022-08-12T02:52:03.179Z,171.30
2022-08-12T02:53:03.470Z,180.00
2022-08-12T02:54:05.253Z,183.70
2022-08-12T02:55:03.140Z,178.20
2022-08-12T02:56:03.129Z,169.40
2022-08-12T02:57:03.119Z,170.80
2022-08-12T02:58:04.284Z,172.90
2022-08-12T02:59:04.101Z,178.70
2022-08-12T03:00:03.070Z,181.40
2022-08-12T03:01:03.096Z,167.80
2022-08-12T03:02:03.055Z,166.80
2022-08-12T03:03:03.042Z,170.80
2022-08-12T03:04:03.151Z,164.60
2022-08-12T03:05:03.026Z,160.50
2022-08-12T03:06:03.001Z,175.20
2022-08-12T03:07:02.990Z,168.00
2022-08-12T03:08:02.973Z,183.30
2022-08-12T03:09:02.961Z,177.20
2022-08-12T03:10:04.311Z,169.10
2022-08-12T03:11:02.941Z,167.40
2022-08-12T03:12:02.911Z,167.20
2022-08-12T03:13:02.920Z,172.70
2022-08-12T03:14:02.892Z,179.30
2022-08-12T03:15:02.951Z,182.40
2022-08-12T03:16:02.881Z,188.10
2022-08-12T03:17:02.863Z,185.90
2022-08-12T03:18:25.654Z,178.80
2022-08-12T03:19:03.839Z,186.10
2022-08-12T03:20:09.566Z,181.20
2022-08-12T03:21:03.802Z,171.20
2022-08-12T03:22:09.281Z,186.30
2022-08-12T03:23:03.781Z,183.30
2022-08-12T03:24:02.777Z,184.00
2022-08-12T03:25:02.754Z,191.40
2022-08-12T03:26:03.427Z,184.50
2022-08-12T03:27:02.743Z,181.00
2022-08-12T03:28:02.717Z,194.70
2022-08-12T03:29:02.696Z,190.20
2022-08-12T03:30:02.686Z,196.10
2022-08-12T03:31:02.674Z,180.20
2022-08-12T03:32:02.662Z,186.00
2022-08-12T03:33:02.677Z,186.90
2022-08-12T03:34:03.371Z,181.90
2022-08-12T03:35:02.623Z,185.30
2022-08-12T03:36:02.620Z,183.90
2022-08-12T03:37:02.955Z,180.70
2022-08-12T03:38:02.582Z,180.70
2022-08-12T03:39:02.572Z,174.20
2022-08-12T03:40:02.618Z,188.10
2022-08-12T03:41:02.545Z,185.30
2022-08-12T03:42:02.524Z,183.20
2022-08-12T03:43:02.525Z,185.90
2022-08-12T03:44:02.505Z,188.40
2022-08-12T03:45:02.496Z,170.10
2022-08-12T03:46:02.486Z,181.10
2022-08-12T03:47:02.464Z,191.30
2022-08-12T03:48:02.524Z,185.30
2022-08-12T03:49:02.449Z,183.90
2022-08-12T03:50:02.427Z,198.40
2022-08-12T03:51:02.407Z,196.40
2022-08-12T03:52:02.403Z,201.10
2022-08-12T03:53:02.389Z,186.40
2022-08-12T03:54:02.382Z,184.80
2022-08-12T03:55:02.360Z,190.80
2022-08-12T03:56:02.362Z,184.60
2022-08-12T03:57:02.335Z,180.40
2022-08-12T03:58:02.326Z,182.70
2022-08-12T03:59:02.435Z,173.90
2022-08-12T04:00:02.307Z,176.60
2022-08-12T04:01:02.330Z,179.70
2022-08-12T04:02:02.278Z,178.80
2022-08-12T04:03:02.266Z,174.30
2022-08-12T04:04:02.247Z,176.70
2022-08-12T04:05:02.246Z,182.50
2022-08-12T04:06:02.229Z,174.40
2022-08-12T04:07:02.208Z,179.40
2022-08-12T04:08:02.197Z,181.10
2022-08-12T04:09:02.177Z,184.70
2022-08-12T04:10:02.240Z,186.20
2022-08-12T04:11:02.149Z,184.00
2022-08-12T04:12:02.143Z,187.60
2022-08-12T04:13:02.137Z,179.90
2022-08-12T04:14:02.126Z,188.40
2022-08-12T04:15:02.150Z,179.60
2022-08-12T04:16:02.152Z,175.40
2022-08-12T04:17:02.087Z,183.00
2022-08-12T04:18:06.744Z,186.00
2022-08-12T04:19:03.049Z,180.70
2022-08-12T04:20:02.070Z,180.30
2022-08-12T04:21:02.115Z,190.00
2022-08-12T04:22:03.706Z,180.80
2022-08-12T04:23:01.996Z,186.10
2022-08-12T04:24:01.994Z,174.40
2022-08-12T04:25:02.514Z,179.90
2022-08-12T04:26:01.959Z,193.00
2022-08-12T04:27:01.950Z,190.40
2022-08-12T04:28:13.133Z,183.70
2022-08-12T04:29:02.910Z,190.80
2022-08-12T04:30:29.654Z,183.90
2022-08-12T04:31:02.976Z,183.40
2022-08-12T04:32:01.881Z,190.10
2022-08-12T04:33:01.870Z,187.10
2022-08-12T04:34:01.854Z,190.90
2022-08-12T04:35:01.841Z,184.80
2022-08-12T04:36:01.840Z,182.20
2022-08-12T04:37:01.819Z,183.70
2022-08-12T04:38:01.815Z,186.70
2022-08-12T04:39:01.789Z,176.70
2022-08-12T04:40:01.783Z,181.10
2022-08-12T04:41:01.767Z,187.50
2022-08-12T04:42:01.824Z,184.30
2022-08-12T04:43:02.048Z,176.70
2022-08-12T04:44:02.672Z,174.90
2022-08-12T04:45:01.714Z,180.50
2022-08-12T04:46:01.714Z,183.10
2022-08-12T04:47:01.690Z,182.80
2022-08-12T04:48:01.700Z,186.20
2022-08-12T04:49:01.673Z,184.30
2022-08-12T04:50:01.658Z,188.40
2022-08-12T04:51:01.641Z,183.90
2022-08-12T04:52:01.622Z,178.70
2022-08-12T04:53:01.784Z,176.50
2022-08-12T04:54:01.592Z,188.50
2022-08-12T04:55:01.581Z,185.70
2022-08-12T04:56:01.574Z,188.50
2022-08-12T04:57:04.285Z,182.60
2022-08-12T04:58:01.558Z,178.40
2022-08-12T04:59:01.529Z,178.60
2022-08-12T05:00:01.523Z,179.00
2022-08-12T05:01:01.504Z,177.80
2022-08-12T05:02:01.567Z,180.70
2022-08-12T05:03:01.535Z,178.40
2022-08-12T05:04:01.596Z,171.40
2022-08-12T05:05:01.443Z,169.60
2022-08-12T05:06:01.445Z,173.50
2022-08-12T05:07:01.434Z,180.00
2022-08-12T05:08:01.424Z,175.50
2022-08-12T05:09:01.473Z,173.50
2022-08-12T05:10:02.533Z,172.80
2022-08-12T05:11:01.374Z,178.40
2022-08-12T05:12:01.372Z,179.00
2022-08-12T05:13:01.357Z,174.70
2022-08-12T05:14:01.351Z,175.90
2022-08-12T05:15:01.395Z,183.30
2022-08-12T05:16:05.451Z,174.60
2022-08-12T05:17:01.296Z,173.60
2022-08-12T05:18:02.156Z,176.40
2022-08-12T05:19:02.428Z,171.20
2022-08-12T05:20:01.265Z,182.40
2022-08-12T05:21:01.247Z,181.50
2022-08-12T05:22:01.246Z,187.50
2022-08-12T05:23:08.858Z,188.70
2022-08-12T05:24:02.208Z,181.90
2022-08-12T05:25:01.200Z,186.10
2022-08-12T05:26:01.289Z,176.10
2022-08-12T05:27:01.168Z,173.60
2022-08-12T05:28:01.154Z,166.20
2022-08-12T05:29:01.137Z,160.60
2022-08-12T05:30:07.041Z,163.40
2022-08-12T05:31:02.153Z,170.90
2022-08-12T05:32:01.108Z,168.60
2022-08-12T05:33:01.085Z,160.50
2022-08-12T05:34:01.077Z,168.20
2022-08-12T05:35:01.065Z,151.30
2022-08-12T05:36:01.055Z,157.60
2022-08-12T05:37:01.277Z,159.40
2022-08-12T05:38:01.026Z,156.60
2022-08-12T05:39:01.009Z,171.60
2022-08-12T05:40:01.077Z,155.00
2022-08-12T05:41:00.986Z,155.20
2022-08-12T05:42:00.968Z,153.50
2022-08-12T05:43:00.962Z,172.30
2022-08-12T05:44:00.951Z,164.90
2022-08-12T05:45:00.929Z,152.80
2022-08-12T05:46:00.930Z,148.60
2022-08-12T05:47:00.898Z,151.30
2022-08-12T05:48:00.970Z,152.10
2022-08-12T05:49:00.888Z,160.90
2022-08-12T05:50:00.871Z,152.60
2022-08-12T05:51:00.849Z,150.20
2022-08-12T05:52:00.843Z,157.90
2022-08-12T05:53:00.823Z,152.90
2022-08-12T05:54:00.825Z,157.00
2022-08-12T05:55:00.803Z,160.70
2022-08-12T05:56:00.812Z,152.20
2022-08-12T05:57:00.782Z,145.30
2022-08-12T05:58:00.761Z,146.20
2022-08-12T05:59:00.923Z,154.60
2022-08-12T06:00:00.741Z,155.90
2022-08-12T06:01:00.719Z,146.60
2022-08-12T06:02:09.752Z,148.90
2022-08-12T06:03:01.754Z,151.40
2022-08-12T06:04:00.704Z,158.40
2022-08-12T06:05:00.679Z,154.80
2022-08-12T06:06:00.661Z,170.10
2022-08-12T06:07:00.653Z,159.20
2022-08-12T06:08:03.041Z,134.30
2022-08-12T06:09:00.620Z,119.80
2022-08-12T06:10:00.908Z,119.50
2022-08-12T06:11:00.599Z,123.40
2022-08-12T06:12:05.841Z,119.50
2022-08-12T06:13:01.583Z,120.20
2022-08-12T06:14:00.553Z,123.20
2022-08-12T06:15:00.543Z,100.70
2022-08-12T06:16:00.543Z,91.40
2022-08-12T06:17:00.521Z,101.30
2022-08-12T06:18:00.513Z,87.70
2022-08-12T06:19:00.504Z,73.80
2022-08-12T06:20:26.279Z,67.40
2022-08-12T06:21:02.382Z,72.50
2022-08-12T06:22:00.455Z,74.10
2022-08-12T06:23:00.434Z,77.20
2022-08-12T06:24:00.433Z,71.70
2022-08-12T06:25:00.421Z,68.80
2022-08-12T06:26:00.404Z,64.90
2022-08-12T06:27:00.384Z,73.10
2022-08-12T06:28:07.724Z,74.30
2022-08-12T06:29:01.365Z,68.40
2022-08-12T06:30:09.585Z,82.20
2022-08-12T06:32:01.560Z,70.20
2022-08-12T06:33:18.488Z,62.10
2022-08-12T06:35:23.002Z,58.30
2022-08-12T06:35:23.332Z,64.90
2022-08-12T06:36:01.324Z,67.00
2022-08-12T06:37:00.260Z,66.50
2022-08-12T06:38:00.254Z,67.90
2022-08-12T06:39:00.229Z,66.80
2022-08-12T06:40:03.689Z,66.30
2022-08-12T06:41:00.214Z,73.30
2022-08-12T06:42:02.602Z,69.10
2022-08-12T06:43:01.349Z,64.30
2022-08-12T06:44:04.808Z,67.10
2022-08-12T06:45:01.158Z,70.60
2022-08-12T06:46:00.157Z,73.50
2022-08-12T06:47:00.153Z,71.30
2022-08-12T06:48:00.157Z,61.50
2022-08-12T06:49:00.100Z,54.10
2022-08-12T06:50:00.125Z,54.70
2022-08-12T06:51:00.082Z,62.90
2022-08-12T06:52:00.076Z,64.70
2022-08-12T06:53:00.052Z,66.60
2022-08-12T06:54:00.190Z,81.60
2022-08-12T06:55:00.029Z,73.10
2022-08-12T06:56:00.026Z,72.90
2022-08-12T06:57:05.409Z,71.80
2022-08-12T06:58:07.692Z,71.50
2022-08-12T06:59:00.971Z,70.70
2022-08-12T06:59:59.963Z,58.70
2022-08-12T07:01:00.001Z,81.50
2022-08-12T07:01:59.944Z,82.10
2022-08-12T07:02:59.921Z,62.90
2022-08-12T07:04:14.379Z,57.90
2022-08-12T07:05:00.899Z,59.00
2022-08-12T07:05:59.893Z,61.00
2022-08-12T07:06:59.870Z,64.90
2022-08-12T07:07:59.864Z,59.80
2022-08-12T07:09:00.842Z,61.70
2022-08-12T07:10:06.614Z,66.40
2022-08-12T07:11:00.824Z,64.80
2022-08-12T07:11:59.805Z,63.30
2022-08-12T07:12:59.795Z,56.00
2022-08-12T07:14:12.559Z,54.60
2022-08-12T07:15:00.783Z,50.50
2022-08-12T07:15:59.770Z,48.30
2022-08-12T07:16:59.747Z,49.90
2022-08-12T07:17:59.734Z,47.40
2022-08-12T07:18:59.717Z,41.30
2022-08-12T07:20:04.222Z,41.40
2022-08-12T07:21:00.696Z,41.70
2022-08-12T07:22:02.804Z,41.00
2022-08-12T07:22:59.664Z,42.10
2022-08-12T07:23:59.655Z,43.50
2022-08-12T07:24:59.647Z,44.40
2022-08-12T07:25:59.766Z,46.20
2022-08-12T07:26:59.625Z,46.30
2022-08-12T07:27:59.608Z,46.40
2022-08-12T07:28:59.590Z,47.20
2022-08-12T07:30:04.903Z,48.10
2022-08-12T07:31:00.568Z,43.00
2022-08-12T07:31:59.557Z,45.50
2022-08-12T07:33:01.761Z,41.60
2022-08-12T07:33:59.528Z,41.70
2022-08-12T07:34:59.519Z,40.50
2022-08-12T07:35:59.508Z,42.60
2022-08-12T07:36:59.548Z,44.20
2022-08-12T07:37:59.478Z,44.10
2022-08-12T07:38:59.462Z,40.00
2022-08-12T07:40:01.087Z,39.90
2022-08-12T07:40:59.436Z,43.60
2022-08-12T07:41:59.422Z,39.70
2022-08-12T07:42:59.415Z,41.20
2022-08-12T07:44:04.343Z,40.90
2022-08-12T07:45:00.395Z,42.40
2022-08-12T07:45:59.380Z,42.60
2022-08-12T07:46:59.361Z,42.50
2022-08-12T07:48:00.250Z,42.60
2022-08-12T07:48:59.345Z,42.80
2022-08-12T07:50:05.200Z,42.50
2022-08-12T07:51:00.311Z,46.00
2022-08-12T07:51:59.299Z,45.30
2022-08-12T07:52:59.291Z,42.30
2022-08-12T07:54:00.776Z,45.50
2022-08-12T07:54:59.266Z,45.10
2022-08-12T07:55:59.244Z,45.20
2022-08-12T07:56:59.237Z,41.50
2022-08-12T07:57:59.242Z,37.90
2022-08-12T07:58:59.864Z,47.00
2022-08-12T07:59:59.204Z,46.30
2022-08-12T08:00:59.185Z,46.40
2022-08-12T08:01:59.258Z,48.70
2022-08-12T08:02:59.164Z,45.70
2022-08-12T08:03:59.146Z,44.00
2022-08-12T08:04:59.136Z,38.80
2022-08-12T08:05:59.114Z,41.20
2022-08-12T08:06:59.105Z,37.50
2022-08-12T08:07:59.094Z,40.00
2022-08-12T08:08:59.082Z,37.30
2022-08-12T08:09:59.792Z,39.70
2022-08-12T08:11:03.744Z,39.10
2022-08-12T08:12:00.044Z,38.30
2022-08-12T08:12:59.035Z,36.90
2022-08-12T08:13:59.016Z,38.10
2022-08-12T08:14:59.011Z,40.20
2022-08-12T08:16:03.761Z,39.40
2022-08-12T08:16:59.991Z,37.90
2022-08-12T08:17:58.966Z,40.20
2022-08-12T08:18:58.969Z,44.30
2022-08-12T08:20:02.543Z,38.50
2022-08-12T08:21:00.027Z,34.00
2022-08-12T08:21:58.931Z,36.50
2022-08-12T08:22:58.910Z,36.50
2022-08-12T08:24:02.000Z,34.90
2022-08-12T08:24:59.881Z,37.10
2022-08-12T08:25:58.867Z,37.40
2022-08-12T08:26:58.859Z,44.60
2022-08-12T08:27:58.839Z,39.10
2022-08-12T08:28:58.829Z,33.30
2022-08-12T08:29:58.810Z,37.50
2022-08-12T08:30:58.812Z,38.70
2022-08-12T08:31:59.181Z,34.20
2022-08-12T08:32:58.770Z,32.60
2022-08-12T08:34:09.193Z,30.40
2022-08-12T08:34:59.750Z,35.70
2022-08-12T08:35:58.731Z,35.00
2022-08-12T08:36:58.731Z,32.70
2022-08-12T08:37:58.708Z,31.80
2022-08-12T08:38:58.969Z,33.60
2022-08-12T08:39:58.768Z,31.80
2022-08-12T08:40:58.687Z,32.50
2022-08-12T08:42:15.601Z,34.40
2022-08-12T08:42:59.811Z,35.80
2022-08-12T08:43:58.635Z,33.50
2022-08-12T08:44:58.696Z,33.40
2022-08-12T08:45:58.605Z,34.20
2022-08-12T08:46:58.604Z,31.50
2022-08-12T08:48:00.385Z,32.20
2022-08-12T08:48:59.642Z,32.20
2022-08-12T08:49:58.553Z,36.20
2022-08-12T08:51:04.666Z,32.30
2022-08-12T08:51:59.524Z,35.30
2022-08-12T08:52:58.530Z,36.80
2022-08-12T08:53:58.601Z,31.60
2022-08-12T08:54:58.499Z,35.30
2022-08-12T08:56:05.908Z,32.50
2022-08-12T08:56:59.496Z,38.00
2022-08-12T08:57:58.455Z,32.60
2022-08-12T08:58:58.459Z,34.10
2022-08-12T08:59:58.433Z,33.90
2022-08-12T09:00:58.436Z,36.00
2022-08-12T09:01:58.438Z,37.20
2022-08-12T09:02:59.419Z,34.40
2022-08-12T09:05:09.570Z,33.80
2022-08-12T09:05:13.033Z,31.40
2022-08-12T09:06:02.331Z,34.30
2022-08-12T09:06:58.349Z,32.50
2022-08-12T09:08:59.318Z,28.60
2022-08-12T09:10:02.798Z,36.60
2022-08-12T09:10:59.940Z,32.90
2022-08-12T09:12:11.517Z,30.50
2022-08-12T09:13:00.781Z,29.80
2022-08-12T09:14:11.852Z,30.10
2022-08-12T09:14:59.243Z,28.20
2022-08-12T09:15:59.351Z,26.40
2022-08-12T09:16:58.221Z,25.50
2022-08-12T09:17:59.162Z,27.40
2022-08-12T09:18:58.190Z,31.60
2022-08-12T09:19:58.420Z,30.00
2022-08-12T09:20:58.171Z,28.20
2022-08-12T09:22:00.321Z,31.20
2022-08-12T09:22:58.924Z,30.70
2022-08-12T09:24:07.559Z,30.20
2022-08-12T09:24:59.811Z,28.30
2022-08-12T09:25:58.105Z,27.00
2022-08-12T09:26:59.189Z,27.80
2022-08-12T09:28:04.978Z,26.70
2022-08-12T09:29:00.790Z,29.90
2022-08-12T09:30:11.454Z,34.80
2022-08-12T09:30:59.304Z,36.80
2022-08-12T09:32:06.549Z,31.90
2022-08-12T09:33:15.290Z,31.50
2022-08-12T09:34:27.729Z,31.20
2022-08-12T09:34:58.986Z,27.30
2022-08-12T09:36:04.306Z,28.60
2022-08-12T09:37:02.570Z,29.70
2022-08-12T09:38:00.823Z,29.20
2022-08-12T09:38:58.839Z,30.20
2022-08-12T09:40:06.244Z,31.90
2022-08-12T09:42:09.173Z,35.10
2022-08-12T09:42:34.188Z,29.90
2022-08-12T09:43:17.110Z,30.50
2022-08-12T09:44:00.951Z,30.00
2022-08-12T09:45:17.873Z,29.70
2022-08-12T09:46:11.902Z,31.60
2022-08-12T09:46:58.850Z,31.10
2022-08-12T09:47:59.882Z,28.70
2022-08-12T09:48:57.942Z,29.40
2022-08-12T09:49:58.789Z,28.70
2022-08-12T09:51:01.487Z,25.90
2022-08-12T09:51:57.776Z,25.20
2022-08-12T09:53:03.788Z,25.60
2022-08-12T09:54:09.167Z,24.00
2022-08-12T09:55:02.476Z,25.60
2022-08-12T09:56:06.176Z,25.80
2022-08-12T09:57:03.743Z,30.80
2022-08-12T09:58:45.672Z,32.50
2022-08-12T09:59:01.756Z,35.40
2022-08-12T10:00:13.133Z,34.70
2022-08-12T10:00:58.708Z,35.30
2022-08-12T10:02:44.846Z,35.40
2022-08-12T10:02:59.057Z,34.00
2022-08-12T10:04:04.254Z,35.60
2022-08-12T10:04:58.607Z,35.70
2022-08-12T10:06:27.357Z,35.10
2022-08-12T10:06:58.587Z,32.60
2022-08-12T10:07:57.574Z,32.00
2022-08-12T10:08:57.567Z,33.80
2022-08-12T10:09:59.203Z,35.70
2022-08-12T10:10:57.524Z,35.30
2022-08-12T10:12:12.037Z,35.00
2022-08-12T10:13:06.746Z,35.40
2022-08-12T10:13:58.499Z,33.20
2022-08-12T10:14:57.486Z,33.70
2022-08-12T10:16:01.974Z,29.80
2022-08-12T10:16:58.465Z,32.50
2022-08-12T10:18:07.105Z,31.90
2022-08-12T10:18:58.440Z,30.90
2022-08-12T10:19:59.877Z,27.50
2022-08-12T10:20:57.577Z,34.20
2022-08-12T10:21:57.398Z,32.40
2022-08-12T10:22:57.583Z,31.70
2022-08-12T10:23:57.375Z,37.40
2022-08-12T10:24:57.367Z,33.10
2022-08-12T10:26:33.824Z,33.10
2022-08-12T10:26:58.363Z,30.90
2022-08-12T10:28:04.584Z,34.90
2022-08-12T10:29:02.916Z,34.10
2022-08-12T10:30:02.784Z,35.10
2022-08-12T10:30:59.540Z,35.80
2022-08-12T10:32:21.755Z,35.50
2022-08-12T10:32:58.564Z,23.80
2022-08-12T10:34:06.574Z,23.60
2022-08-12T10:34:58.249Z,26.50
2022-08-12T10:35:57.232Z,25.90
2022-08-12T10:36:57.221Z,28.20
2022-08-12T10:38:36.337Z,23.00
2022-08-12T10:38:58.212Z,22.60
2022-08-12T10:40:06.169Z,22.30
2022-08-12T10:40:58.297Z,22.30
2022-08-12T10:42:00.159Z,31.30
2022-08-12T10:42:57.168Z,26.40
2022-08-12T10:43:57.144Z,25.20
2022-08-12T10:44:57.139Z,28.30
2022-08-12T10:45:58.450Z,26.90
2022-08-12T10:46:57.115Z,27.30
2022-08-12T10:48:07.550Z,25.90
2022-08-12T10:49:06.712Z,25.60
2022-08-12T10:50:02.569Z,24.50
2022-08-12T10:51:03.451Z,25.40
2022-08-12T10:52:31.091Z,24.60
2022-08-12T10:52:58.055Z,26.70
2022-08-12T10:54:00.620Z,21.80
2022-08-12T10:54:58.037Z,23.90
2022-08-12T10:55:57.011Z,23.10
2022-08-12T10:56:57.008Z,28.20
2022-08-12T10:58:28.173Z,22.90
2022-08-12T10:58:57.978Z,24.60
2022-08-12T11:00:34.859Z,25.50
2022-08-12T11:01:50.007Z,27.70
2022-08-12T11:04:18.927Z,32.00
2022-08-12T11:04:24.442Z,32.20
2022-08-12T11:04:27.267Z,32.70
2022-08-12T11:04:58.415Z,28.80
2022-08-12T11:07:06.491Z,36.00
2022-08-12T11:07:07.813Z,32.90
2022-08-12T11:08:33.483Z,40.90
2022-08-12T11:08:57.940Z,38.10
2022-08-12T11:10:01.661Z,42.80
2022-08-12T11:10:57.851Z,46.60
2022-08-12T11:12:34.817Z,42.80
2022-08-12T11:13:00.372Z,43.50
2022-08-12T11:14:00.022Z,46.10
2022-08-12T11:14:56.801Z,44.20
2022-08-12T11:16:19.615Z,45.10
2022-08-12T11:17:33.799Z,47.80
2022-08-12T11:17:58.039Z,50.70
2022-08-12T11:18:57.764Z,49.30
2022-08-12T11:19:57.741Z,48.60
2022-08-12T11:20:57.818Z,47.90
2022-08-12T11:22:01.353Z,37.40
2022-08-12T11:22:58.673Z,29.30
2022-08-12T11:23:56.695Z,40.10
2022-08-12T11:24:57.132Z,35.90
2022-08-12T11:26:04.991Z,38.80
2022-08-12T11:27:56.654Z,40.40
2022-08-12T11:28:59.362Z,36.60
2022-08-12T11:30:06.469Z,36.10
2022-08-12T11:30:57.625Z,33.40
2022-08-12T11:32:02.726Z,34.30
2022-08-12T11:32:57.699Z,38.40
2022-08-12T11:34:06.044Z,33.70
2022-08-12T11:34:59.230Z,35.70
2022-08-12T11:35:59.740Z,37.20
2022-08-12T11:36:56.526Z,36.10
2022-08-12T11:37:57.909Z,39.10
2022-08-12T11:38:57.678Z,42.30
2022-08-12T11:40:57.502Z,39.70
2022-08-12T11:41:56.468Z,36.50
2022-08-12T11:43:00.677Z,42.90
2022-08-12T11:43:58.858Z,42.90
2022-08-12T11:44:56.449Z,43.30
2022-08-12T11:45:56.879Z,44.40
2022-08-12T11:46:56.422Z,43.20
2022-08-12T11:47:56.408Z,53.20
2022-08-12T11:48:56.403Z,55.80
2022-08-12T11:49:56.384Z,50.20
2022-08-12T11:50:56.376Z,49.40
2022-08-12T11:51:57.511Z,51.10
2022-08-12T11:52:57.318Z,51.40
2022-08-12T11:53:57.747Z,53.70
2022-08-12T11:54:56.335Z,52.40
2022-08-12T11:55:56.318Z,52.20
2022-08-12T11:56:59.495Z,52.30
2022-08-12T11:58:19.792Z,49.00
2022-08-12T12:02:00.985Z,51.90
2022-08-12T12:02:57.293Z,49.90
2022-08-12T12:03:56.242Z,47.80
2022-08-12T12:04:56.239Z,32.30
2022-08-12T12:05:56.221Z,39.60
2022-08-12T12:06:56.215Z,42.80
2022-08-12T12:08:41.166Z,39.40
2022-08-12T12:08:57.197Z,42.10
2022-08-12T12:09:56.186Z,39.80
2022-08-12T12:10:56.216Z,42.30
2022-08-12T12:11:56.164Z,44.00
2022-08-12T12:12:56.149Z,43.40
2022-08-12T12:14:07.814Z,49.70
2022-08-12T12:15:00.499Z,47.20
2022-08-12T12:15:57.114Z,51.20
2022-08-12T12:16:56.112Z,47.80
2022-08-12T12:17:56.185Z,50.30
2022-08-12T12:18:56.203Z,51.20
2022-08-12T12:19:56.086Z,53.20
2022-08-12T12:20:56.055Z,51.50
2022-08-12T12:21:56.056Z,51.70
2022-08-12T12:22:56.055Z,55.60
2022-08-12T12:24:00.835Z,48.80
2022-08-12T12:24:57.017Z,49.60
2022-08-12T12:26:07.260Z,52.50
2022-08-12T12:27:00.635Z,52.10
2022-08-12T12:28:05.940Z,49.50
2022-08-12T12:28:57.325Z,49.40
2022-08-12T12:30:19.772Z,54.50
2022-08-12T12:30:56.951Z,49.30
2022-08-12T12:32:09.940Z,48.30
2022-08-12T12:32:56.934Z,47.20
2022-08-12T12:33:57.769Z,55.40
2022-08-12T12:35:14.254Z,58.00
2022-08-12T12:36:18.608Z,48.90
2022-08-12T12:36:56.893Z,57.00
2022-08-12T12:38:03.590Z,59.60
2022-08-12T12:38:56.873Z,57.00
2022-08-12T12:39:56.071Z,55.20
2022-08-12T12:40:55.877Z,58.70
2022-08-12T12:42:43.678Z,65.10
2022-08-12T12:43:01.906Z,63.10
2022-08-12T12:44:04.336Z,60.80
2022-08-12T12:44:56.813Z,65.00
2022-08-12T12:45:55.818Z,58.70
2022-08-12T12:46:55.792Z,63.10